Terminal Aerodrome Forecast
Issued by NWS

Home | Current Version | Previous Version | Graphics & Text | Print | Product List | Glossary On
Versions: 1 2 3 4 5 6 7 8 9 10 11 12 13 14 15 16 17
000
FTUS43 KMPX 292300
TAFAXN
TAF
KAXN 292327Z 3000/3024 32005KT P6SM SCT025 OVC035
     FM300700 35007KT 6SM BR SCT005 OVC015
     FM300900 35007KT 2SM BR OVC004
     FM301500 02006KT 6SM BR BKN010
     FM301700 02005KT P6SM BKN020
     FM302100 VRB03KT P6SM SCT020=

USA.gov is the U.S. government's official web portal to all federal, state and local government web resources and services.